ADDS METAR Data INFO
IDs: Format: Raw Decoded Include TAF

Data at: 0740 UTC 23 Jul 2018

KFPR 230653Z AUTO 16005KT 10SM FEW100 24/24 A2984 RMK AO2 RAE25 TSE10 PRESFR SLP104 P0001 T02440244
KFPR 230626Z AUTO 00000KT 10SM FEW040 FEW080 SCT110 24/24 A2989 RMK AO2 LTG DSNT NE AND E RAE25 TSE10 P0001 T02390239
KFPR 230616Z AUTO 07003KT 10SM VCTS -RA SCT040 BKN080 BKN100 24/24 A2990 RMK AO2 LTG DSNT NE AND E TSE10 PRESFR P0001 T02390239
KFPR 230553Z AUTO 36007KT 3SM +TSRA BR SCT013 BKN050 OVC075 24/24 A2995 RMK AO2 LTG DSNT NW-NE RAB49 TSB47 SLP141 P0008 60008 T02440239 10256 20233 53017
KFPR 230547Z AUTO 35006KT 10SM TS FEW011 BKN070 OVC090 24/23 A2995 RMK AO2 LTG DSNT NW-NE TSB47
KFPR 230453Z AUTO 24003KT 10SM SCT110 24/23 A2991 RMK AO2 LTG DSNT W SLP127 T02390233 403560233
KFPR 230353Z AUTO 22007KT 10SM CLR 23/23 A2990 RMK AO2 SLP124 T02330228
KFPR 230253Z AUTO 25004KT 10SM CLR 24/24 A2990 RMK AO2 SLP124 T02440239 58005
KFPR 230153Z AUTO 00000KT 10SM CLR 24/24 A2992 RMK AO2 SLP131 T02440244
KFPR 230128Z AUTO 19003KT 10SM SCT014 25/24 A2992 RMK AO2 T02500244
KFPR 230113Z AUTO 16006KT 9SM BKN013 25/24 A2990 RMK AO2 LTG DSNT S PRESFR T02500244
KFPR 230053Z 17003KT 10SM FEW014 25/24 A2993 RMK AO2 LTG DSNT SE AND S SLP133 T02500244
KFPR 222353Z 00000KT 10SM FEW027 SCT070 25/24 A2991 RMK AO2 LTG DSNT SE AND S RAB07E46 SLP129 P0001 60048 T02500244 10356 20239 51008
KFPR 222337Z 05003KT 10SM VCTS -RA FEW028 SCT047 BKN110 24/24 A2991 RMK AO2 LTG DSNT SE-SW RAB07 P0001 T02440239
KFPR 222306Z 06005KT 7SM SCT060 SCT070 BKN090 24/24 A2989 RMK AO2 LTG DSNT E-SW T02440244
KFPR 222253Z 10006KT 9SM VCTS SCT030 BKN060 BKN090 24/24 A2991 RMK AO2 LTG DSNT ALQDS RAB2155E47 TSE50 SLP127 P0047 T02440244
KFPR 222241Z 06005KT 4SM -TSRA BR BKN032 BKN038 OVC070 24/24 A2990 RMK AO2 LTG DSNT ALQDS RAB2155 P0047 T02390239
KFPR 222239Z 06007KT 1 3/4SM -TSRA BR BKN032 BKN046 OVC055 24/24 A2990 RMK AO2 LTG DSNT ALQDS RAB2155 P0047 T02390239
KFPR 222235Z 06006KT 3/4SM TSRA BR BKN021 BKN031 OVC050 24/24 A2990 RMK AO2 LTG DSNT ALQDS RAB2155 P0047 T02390239
KFPR 222228Z 05006KT 1/4SM +TSRA FG BKN016 BKN031 OVC050 24/23 A2991 RMK AO2 LTG DSNT ALQDS RAB2155 P0041 T02390233
KFPR 222223Z VRB03KT 1/2SM +TSRA FG SCT016 BKN037 OVC050 24/24 A2993 RMK AO2 LTG DSNT ALQDS RAB2155 P0021 T02440239
KFPR 222220Z 32006KT 1 1/4SM TSRA BR FEW018 BKN037 OVC050 24/24 A2994 RMK AO2 LTG DSNT ALQDS RAB2155 P0009 T02440239
KFPR 222153Z 35009G21KT 10SM TS FEW024 OVC040 27/23 A2989 RMK AO2 LTG DSNT ALQDS TSB32 SLP121 T02670228
KFPR 222138Z 32009G18KT 10SM TS FEW026 FEW035 BKN044 27/22 A2989 RMK AO2 LTG DSNT ALQDS TSB32 PRESRR T02720222
KFPR 222053Z 22010G16KT 10SM VCTS BKN044 BKN060 OVC100 32/26 A2982 RMK AO2 LTG DSNT ALQDS SLP098 T03170261 58019
KFPR 221953Z 25008KT 10SM FEW080 35/24 A2985 RMK AO2 LTG DSNT SE SLP107 T03500244
KFPR 221853Z 25010KT 10SM SCT045 BKN055 34/24 A2987 RMK AO2 SLP113 T03440244
KFPR 221753Z 25010KT 10SM FEW041 34/24 A2988 RMK AO2 SLP117 T03440239 10344 20256 58022
KFPR 221653Z 26008KT 10SM FEW042 FEW050 33/25 A2990 RMK AO2 SLP125 T03330250
KFPR 221553Z 26010KT 10SM FEW030 33/25 A2993 RMK AO2 SLP135 T03280250
KFPR 221453Z 24010KT 10SM SCT023 SCT031 31/26 A2994 RMK AO2 SLP139 T03110261 50005
KFPR 221353Z 24006KT 10SM SCT013 BKN120 30/27 A2995 RMK AO2 SLP141 T03000267
KFPR 221253Z 26007KT 10SM SCT110 28/27 A2995 RMK AO2 SLP141 T02830267
KFPR 221155Z 26004KT 10SM SCT003 26/26 A2993 RMK AO2 T02610261
KFPR 221153Z 27004KT 10SM BKN003 BKN017 26/26 A2993 RMK AO2 SLP134 70091 T02560256 10256 20244 51010
KFPR 221122Z 28005KT 10SM BKN003 25/25 A2993 RMK AO2 T02500250
KFPR 221053Z COR 26004KT 10SM BR FEW006 25/25 A2993 RMK AO2 SLP134 T02500250
KFPR 220953Z AUTO 26003KT 6SM BR FEW005 SCT015 25/25 A2991 RMK AO2 SLP127 T02500250
KFPR 220947Z AUTO 26004KT 7SM SCT005 SCT015 25/25 A2991 RMK AO2
KFPR 220853Z AUTO 22006KT 7SM OVC005 25/25 A2990 RMK AO2 SLP124 T02500250 56016
KFPR 220800Z AUTO 21004KT 7SM BKN006 24/24 A2991 RMK AO2 T02440244
KFPR 220753Z AUTO 22004KT 7SM SCT006 24/24 A2991 RMK AO2 SLP128 T02440244
KFPR 220740Z AUTO 20003KT 8SM FEW006 24/24 A2992 RMK AO2 T02440244
KFPR 220653Z AUTO 24004KT 10SM CLR 24/24 A2993 RMK AO2 SLP135 T02440244
KFPR 220553Z AUTO 26004KT 10SM CLR 24/24 A2995 RMK AO2 SLP140 T02440244 10272 20239 51000
KFPR 220453Z AUTO 26005KT 10SM CLR 24/24 A2995 RMK AO2 SLP140 T02440239 403330239
KFPR 220353Z AUTO 27004KT 10SM CLR 24/23 A2995 RMK AO2 SLP142 T02390233
KFPR 220253Z AUTO 00000KT 10SM CLR 24/23 A2995 RMK AO2 SLP140 T02440228 55001
KFPR 220153Z AUTO 30003KT 10SM CLR 25/23 A2992 RMK AO2 PRESRR SLP130 T02500233
KFPR 220053Z 00000KT 10SM CLR 26/23 A2990 RMK AO2 PRESFR SLP124 T02560233
KFPR 212353Z 27011G18KT 10SM CLR 27/24 A2995 RMK AO2 LTG DSNT N AND NW SLP141 60003 T02720244 10300 20250 53001
KFPR 212253Z 26008KT 10SM BKN090 OVC110 29/25 A2995 RMK AO2 SLP140 T02940250
KFPR 212153Z 25007KT 10SM FEW050 SCT070 BKN090 29/26 A2994 RMK AO2 RAE50 SLP137 P0001 T02890261
KFPR 212053Z 24006KT 10SM -RA FEW055 SCT075 OVC090 28/26 A2995 RMK AO2 LTG DSNT S RAB12 SLP140 P0001 60002 T02780256 56006
KFPR 211953Z 25008KT 10SM CLR 29/24 A2995 RMK AO2 SLP141 T02890244